Alexis, Illinois
Current Conditions -  °F | °C
As of 1:15 PM on Thursday 18 Dec 2014 (Local Time) from KGBG Reporting Station
Broken Clouds Broken Clouds  
Wind Chill: -3°   Ceiling: 9000
Heat Index: -3°   Visibility: 10mi
Dew Point: -7°   Wind: 3mph
Humidity: 75%   Direction: 280°W
Pressure: 30.24"   Gusts: NA
Location:  41.06°N, 90.56°W
Report Text: KGBG 181915Z AUTO 28003KT 10SM BKN090 M03/M06 A3024 RMK AO2 T10261065
Loading
Personal Weather Stations






























Interactive Weather Map New forecast layout! Learn more

10-Day Weather Forecast

Advertisements
Track Severe Weather on mobile